createdAt,value
2023-11-12T00:01:36.608Z,77.48
2023-11-12T00:06:42.193Z,77.75
2023-11-12T00:11:47.437Z,78.21
2023-11-12T00:16:49.901Z,78.19
2023-11-12T00:21:52.113Z,78.35
2023-11-12T00:26:54.118Z,78.63
2023-11-12T00:31:57.551Z,78.46
2023-11-12T00:36:59.632Z,78.62
2023-11-12T00:42:01.484Z,78.68
2023-11-12T00:47:03.589Z,78.59
2023-11-12T00:52:09.466Z,78.47
2023-11-12T00:57:11.784Z,78.50
2023-11-12T01:02:17.366Z,78.36
2023-11-12T01:07:20.523Z,78.14
2023-11-12T01:12:24.576Z,78.18
2023-11-12T01:17:26.611Z,77.94
2023-11-12T01:22:28.811Z,77.85
2023-11-12T01:27:30.873Z,77.80
2023-11-12T01:32:34.552Z,77.83
2023-11-12T01:37:36.734Z,77.59
2023-11-12T01:42:39.485Z,77.66
2023-11-12T01:47:45.758Z,77.51
2023-11-12T01:52:49.379Z,77.48
2023-11-12T01:57:54.313Z,77.51
2023-11-12T02:02:57.675Z,77.26
2023-11-12T02:08:02.186Z,77.13
2023-11-12T02:13:08.661Z,77.19
2023-11-12T02:18:11.379Z,76.98
2023-11-12T02:23:16.590Z,76.62
2023-11-12T02:28:20.800Z,76.64
2023-11-12T02:33:28.873Z,76.44
2023-11-12T02:38:32.597Z,76.42
2023-11-12T02:43:35.681Z,76.27
2023-11-12T02:49:09.807Z,76.19
2023-11-12T02:54:11.723Z,76.02
2023-11-12T02:59:13.698Z,76.00
2023-11-12T03:04:16.159Z,75.77
2023-11-12T03:09:18.261Z,75.83
2023-11-12T03:14:20.490Z,75.74
2023-11-12T03:19:23.130Z,75.66
2023-11-12T03:24:25.432Z,75.56
2023-11-12T03:29:27.772Z,75.42
2023-11-12T03:34:29.669Z,75.45
2023-11-12T03:39:31.732Z,75.23
2023-11-12T03:44:33.717Z,75.34
2023-11-12T03:49:36.706Z,75.17
2023-11-12T03:54:39.110Z,75.18
2023-11-12T03:59:41.474Z,75.12
2023-11-12T04:04:44.686Z,74.74
2023-11-12T04:09:46.781Z,74.65
2023-11-12T04:14:49.024Z,74.79
2023-11-12T04:19:51.936Z,74.65
2023-11-12T04:24:54.577Z,74.49
2023-11-12T04:29:56.887Z,74.66
2023-11-12T04:34:59.164Z,74.67
2023-11-12T04:40:01.451Z,74.52
2023-11-12T04:45:04.267Z,74.51
2023-11-12T04:50:06.987Z,74.52
2023-11-12T04:55:09.156Z,74.46
2023-11-12T05:00:13.965Z,74.43
2023-11-12T05:05:18.134Z,74.23
2023-11-12T05:10:20.393Z,74.48
2023-11-12T05:15:22.419Z,74.23
2023-11-12T05:20:26.019Z,74.38
2023-11-12T05:25:28.913Z,74.16
2023-11-12T05:30:31.104Z,74.23
2023-11-12T05:35:33.056Z,74.08
2023-11-12T05:40:35.152Z,74.13
2023-11-12T05:45:37.429Z,74.34
2023-11-12T05:50:39.862Z,74.31
2023-11-12T05:55:41.880Z,74.38
2023-11-12T06:00:44.477Z,74.39
2023-11-12T06:05:46.644Z,74.32
2023-11-12T06:10:50.293Z,74.53
2023-11-12T06:15:52.683Z,74.24
2023-11-12T06:20:54.926Z,74.23
2023-11-12T06:25:57.500Z,74.17
2023-11-12T06:30:59.692Z,74.07
2023-11-12T06:36:02.930Z,74.01
2023-11-12T06:41:05.049Z,74.06
2023-11-12T06:46:08.829Z,74.04
2023-11-12T06:51:21.041Z,74.07
2023-11-12T06:56:24.531Z,73.76
2023-11-12T07:01:48.619Z,73.98
2023-11-12T07:07:01.327Z,73.99
2023-11-12T07:12:11.334Z,73.73
2023-11-12T07:17:14.100Z,73.81
2023-11-12T07:22:16.148Z,73.94
2023-11-12T07:27:18.162Z,73.88
2023-11-12T07:32:22.637Z,73.72
2023-11-12T07:37:24.734Z,73.56
2023-11-12T07:42:26.771Z,73.61
2023-11-12T07:47:29.048Z,73.58
2023-11-12T07:52:32.355Z,73.53
2023-11-12T07:57:34.893Z,73.40
2023-11-12T08:02:38.495Z,73.35
2023-11-12T08:07:42.232Z,73.24
2023-11-12T08:12:44.544Z,73.22
2023-11-12T08:17:48.770Z,72.86
2023-11-12T08:22:51.016Z,72.86
2023-11-12T08:27:53.250Z,72.72
2023-11-12T08:32:55.660Z,71.84
2023-11-12T08:38:00.924Z,72.25
2023-11-12T08:43:03.428Z,71.99
2023-11-12T08:48:06.089Z,72.27
2023-11-12T08:53:08.796Z,71.92
2023-11-12T08:58:11.056Z,71.64
2023-11-12T09:03:13.726Z,70.96
2023-11-12T09:08:17.474Z,70.36
2023-11-12T09:13:19.635Z,70.28
2023-11-12T09:18:22.231Z,70.02
2023-11-12T09:23:24.399Z,69.78
2023-11-12T09:28:26.688Z,69.51
2023-11-12T09:33:29.136Z,69.48
2023-11-12T09:38:35.153Z,69.17
2023-11-12T09:43:38.045Z,69.14
2023-11-12T09:48:41.524Z,67.90
2023-11-12T09:53:48.702Z,67.07
2023-11-12T09:58:51.128Z,67.13
2023-11-12T10:03:53.412Z,67.26
2023-11-12T10:08:55.685Z,66.18
2023-11-12T10:13:58.038Z,65.92
2023-11-12T10:19:15.642Z,65.54
2023-11-12T10:24:18.472Z,64.97
2023-11-12T10:29:25.109Z,64.32
2023-11-12T10:34:28.994Z,64.51
2023-11-12T10:39:42.694Z,63.68
2023-11-12T10:44:46.207Z,62.75
2023-11-12T10:49:49.418Z,63.25
2023-11-12T10:54:52.726Z,63.64
2023-11-12T10:59:56.433Z,63.59
2023-11-12T11:05:01.198Z,63.83
2023-11-12T11:10:04.838Z,64.53
2023-11-12T11:15:44.404Z,64.48
2023-11-12T11:21:18.601Z,64.63
2023-11-12T11:26:35.882Z,64.64
2023-11-12T11:31:40.243Z,64.82
2023-11-12T11:36:58.229Z,64.94
2023-11-12T11:42:02.626Z,65.28
2023-11-12T11:47:17.699Z,65.36
2023-11-12T11:52:22.641Z,65.15
2023-11-12T11:57:29.116Z,64.96
2023-11-12T12:02:46.201Z,63.91
2023-11-12T12:08:00.414Z,63.59
2023-11-12T12:13:02.414Z,62.86
2023-11-12T12:18:25.452Z,62.80
2023-11-12T12:23:28.452Z,62.71
2023-11-12T12:28:32.015Z,62.47
2023-11-12T12:33:34.366Z,62.52
2023-11-12T12:38:37.975Z,62.21
2023-11-12T12:43:49.266Z,62.58
2023-11-12T12:48:56.028Z,61.89
2023-11-12T12:53:59.004Z,60.99
2023-11-12T12:59:00.913Z,60.33
2023-11-12T13:04:03.953Z,60.56
2023-11-12T13:09:18.567Z,60.67
2023-11-12T13:14:22.145Z,61.03
2023-11-12T13:19:26.163Z,60.88
2023-11-12T13:24:29.980Z,60.43
2023-11-12T13:29:32.139Z,60.50
2023-11-12T13:34:34.189Z,61.00
2023-11-12T13:39:36.334Z,61.13
2023-11-12T13:44:38.446Z,60.92
2023-11-12T13:49:40.709Z,61.38
2023-11-12T13:54:43.639Z,61.21
2023-11-12T13:59:45.992Z,60.86
2023-11-12T14:04:48.068Z,59.86
2023-11-12T14:09:50.242Z,60.29
2023-11-12T14:14:52.853Z,60.48
2023-11-12T14:19:56.849Z,60.86
2023-11-12T14:25:00.809Z,60.80
2023-11-12T14:30:09.668Z,61.11
2023-11-12T14:35:11.686Z,60.89
2023-11-12T14:40:16.030Z,61.34
2023-11-12T14:45:26.126Z,61.45
2023-11-12T14:50:34.290Z,61.86
2023-11-12T14:55:38.323Z,62.24
2023-11-12T15:00:41.348Z,62.16
2023-11-12T15:05:44.008Z,62.24
2023-11-12T15:10:46.363Z,62.35
2023-11-12T15:15:48.722Z,62.07
2023-11-12T15:21:07.867Z,62.21
2023-11-12T15:26:15.513Z,62.05
2023-11-12T15:31:20.778Z,62.48
2023-11-12T15:36:23.451Z,62.67
2023-11-12T15:41:25.985Z,62.78
2023-11-12T15:46:28.638Z,63.25
2023-11-12T15:51:31.233Z,63.29
2023-11-12T15:56:33.844Z,63.28
2023-11-12T16:01:36.802Z,63.44
2023-11-12T16:06:39.182Z,63.61
2023-11-12T16:11:41.771Z,63.69
2023-11-12T16:16:45.788Z,63.84
2023-11-12T16:21:49.484Z,63.80
2023-11-12T16:26:55.560Z,63.76
2023-11-12T16:32:11.100Z,63.84
2023-11-12T16:37:13.596Z,63.75
2023-11-12T16:42:17.979Z,63.65
2023-11-12T16:47:24.905Z,63.61
2023-11-12T16:52:29.769Z,63.43
2023-11-12T16:57:32.067Z,63.56
2023-11-12T17:02:36.994Z,63.45
2023-11-12T17:07:39.570Z,63.62
2023-11-12T17:12:43.642Z,63.76
2023-11-12T17:17:49.610Z,63.54
2023-11-12T17:23:19.089Z,63.66
2023-11-12T17:28:21.495Z,62.99
2023-11-12T17:33:27.720Z,63.17
2023-11-12T17:38:30.054Z,62.97
2023-11-12T17:43:32.541Z,63.12
2023-11-12T17:48:34.781Z,63.02
2023-11-12T17:53:37.907Z,63.30
2023-11-12T17:58:40.841Z,63.24
2023-11-12T18:03:44.494Z,63.52
2023-11-12T18:08:47.079Z,63.63
2023-11-12T18:13:49.086Z,63.50
2023-11-12T18:18:51.298Z,63.71
2023-11-12T18:23:53.305Z,63.75
2023-11-12T18:28:55.348Z,63.66
2023-11-12T18:33:57.293Z,63.43
2023-11-12T18:38:59.602Z,63.51
2023-11-12T18:44:05.710Z,63.65
2023-11-12T18:49:07.610Z,63.45
2023-11-12T18:54:09.724Z,63.82
2023-11-12T18:59:13.010Z,63.84
2023-11-12T19:04:16.736Z,63.91
2023-11-12T19:09:19.123Z,63.53
2023-11-12T19:14:21.147Z,63.41
2023-11-12T19:19:26.141Z,63.58
2023-11-12T19:24:29.494Z,63.38
2023-11-12T19:29:31.548Z,63.49
2023-11-12T19:34:35.746Z,63.12
2023-11-12T19:39:40.154Z,62.96
2023-11-12T19:44:45.185Z,62.95
2023-11-12T19:49:47.065Z,62.72
2023-11-12T19:54:49.678Z,62.44
2023-11-12T19:59:51.806Z,62.79
2023-11-12T20:04:53.683Z,62.79
2023-11-12T20:09:56.818Z,62.55
2023-11-12T20:15:02.709Z,62.21
2023-11-12T20:20:05.449Z,62.12
2023-11-12T20:25:08.886Z,61.92
2023-11-12T20:30:11.419Z,62.21
2023-11-12T20:35:13.844Z,61.66
2023-11-12T20:40:16.841Z,61.68
2023-11-12T20:45:20.642Z,61.94
2023-11-12T20:50:24.536Z,62.12
2023-11-12T20:55:26.948Z,61.72
2023-11-12T21:00:29.835Z,61.92
2023-11-12T21:05:35.815Z,61.65
2023-11-12T21:10:37.846Z,61.76
2023-11-12T21:15:42.109Z,61.66
2023-11-12T21:20:45.771Z,61.70
2023-11-12T21:25:48.324Z,61.79
2023-11-12T21:30:50.653Z,61.87
2023-11-12T21:35:55.241Z,61.67
2023-11-12T21:40:57.515Z,61.84
2023-11-12T21:46:00.172Z,61.69
2023-11-12T21:51:02.400Z,61.50
2023-11-12T21:56:05.662Z,61.47
2023-11-12T22:01:12.576Z,61.42
2023-11-12T22:06:14.763Z,61.42
2023-11-12T22:11:16.892Z,61.29
2023-11-12T22:16:19.626Z,61.22
2023-11-12T22:21:21.756Z,61.36
2023-11-12T22:26:24.117Z,61.38
2023-11-12T22:31:26.548Z,61.34
2023-11-12T22:36:32.409Z,61.38
2023-11-12T22:41:34.766Z,61.19
2023-11-12T22:46:37.046Z,61.39
2023-11-12T22:51:39.269Z,61.14
2023-11-12T22:56:41.806Z,61.20
2023-11-12T23:01:44.269Z,60.85
2023-11-12T23:06:48.590Z,61.08
2023-11-12T23:11:50.983Z,61.18
2023-11-12T23:16:57.680Z,61.06
2023-11-12T23:22:04.553Z,61.20
2023-11-12T23:27:06.725Z,60.87
2023-11-12T23:32:10.005Z,60.85
2023-11-12T23:37:14.657Z,60.89
2023-11-12T23:42:18.332Z,60.88
2023-11-12T23:47:21.220Z,60.71
2023-11-12T23:52:23.529Z,60.89
2023-11-12T23:57:25.548Z,60.74
